sensor_id;sensor_type;location;lat;lon;timestamp;temperature;humidity
16736;DHT22;17990;49.548;9.730;2022-09-30T00:00:56;6.80;99.90
16736;DHT22;17990;49.548;9.730;2022-09-30T00:03:23;6.80;99.90
16736;DHT22;17990;49.548;9.730;2022-09-30T00:05:57;6.80;99.90
16736;DHT22;17990;49.548;9.730;2022-09-30T00:08:24;6.80;99.90
16736;DHT22;17990;49.548;9.730;2022-09-30T00:10:59;6.80;99.90
16736;DHT22;17990;49.548;9.730;2022-09-30T00:13:28;6.70;99.90
16736;DHT22;17990;49.548;9.730;2022-09-30T00:15:57;6.80;99.90
16736;DHT22;17990;49.548;9.730;2022-09-30T00:18:25;6.80;99.90
16736;DHT22;17990;49.548;9.730;2022-09-30T00:20:52;6.80;99.90
16736;DHT22;17990;49.548;9.730;2022-09-30T00:23:19;6.80;99.90
16736;DHT22;17990;49.548;9.730;2022-09-30T00:25:46;6.80;99.90
16736;DHT22;17990;49.548;9.730;2022-09-30T00:28:13;6.80;99.90
16736;DHT22;17990;49.548;9.730;2022-09-30T00:30:40;6.80;99.90
16736;DHT22;17990;49.548;9.730;2022-09-30T00:33:09;6.80;99.90
16736;DHT22;17990;49.548;9.730;2022-09-30T00:35:36;6.80;99.90
16736;DHT22;17990;49.548;9.730;2022-09-30T00:38:03;6.90;99.90
16736;DHT22;17990;49.548;9.730;2022-09-30T00:40:31;6.90;99.90
16736;DHT22;17990;49.548;9.730;2022-09-30T00:42:58;6.80;99.90
16736;DHT22;17990;49.548;9.730;2022-09-30T00:45:26;6.90;99.90
16736;DHT22;17990;49.548;9.730;2022-09-30T00:47:57;6.80;99.90
16736;DHT22;17990;49.548;9.730;2022-09-30T00:50:36;6.80;99.90
16736;DHT22;17990;49.548;9.730;2022-09-30T00:53:15;6.60;99.90
16736;DHT22;17990;49.548;9.730;2022-09-30T00:55:49;6.60;99.90
16736;DHT22;17990;49.548;9.730;2022-09-30T00:58:23;6.60;99.90
16736;DHT22;17990;49.548;9.730;2022-09-30T01:00:52;6.60;99.90
16736;DHT22;17990;49.548;9.730;2022-09-30T01:03:20;6.60;99.90
16736;DHT22;17990;49.548;9.730;2022-09-30T01:05:50;6.50;99.90
16736;DHT22;17990;49.548;9.730;2022-09-30T01:08:18;6.20;99.90
16736;DHT22;17990;49.548;9.730;2022-09-30T01:10:46;6.20;99.90
16736;DHT22;17990;49.548;9.730;2022-09-30T01:13:14;6.00;99.90
16736;DHT22;17990;49.548;9.730;2022-09-30T01:16:16;5.90;99.90
16736;DHT22;17990;49.548;9.730;2022-09-30T01:19:01;5.90;99.90
16736;DHT22;17990;49.548;9.730;2022-09-30T01:22:05;6.00;99.90
16736;DHT22;17990;49.548;9.730;2022-09-30T01:31:25;6.10;99.90
16736;DHT22;17990;49.548;9.730;2022-09-30T01:34:03;6.30;99.90
16736;DHT22;17990;49.548;9.730;2022-09-30T01:36:45;6.40;99.90
16736;DHT22;17990;49.548;9.730;2022-09-30T01:39:26;6.30;99.90
16736;DHT22;17990;49.548;9.730;2022-09-30T01:42:03;6.20;99.90
16736;DHT22;17990;49.548;9.730;2022-09-30T01:44:39;6.30;99.90
16736;DHT22;17990;49.548;9.730;2022-09-30T01:47:17;6.30;99.90
16736;DHT22;17990;49.548;9.730;2022-09-30T01:52:38;6.40;99.90
16736;DHT22;17990;49.548;9.730;2022-09-30T01:55:11;6.50;99.90
16736;DHT22;17990;49.548;9.730;2022-09-30T01:57:44;6.50;99.90
16736;DHT22;17990;49.548;9.730;2022-09-30T02:00:13;6.50;99.90
16736;DHT22;17990;49.548;9.730;2022-09-30T02:02:45;6.60;99.90
16736;DHT22;17990;49.548;9.730;2022-09-30T02:05:18;6.60;99.90
16736;DHT22;17990;49.548;9.730;2022-09-30T02:07:50;6.50;99.90
16736;DHT22;17990;49.548;9.730;2022-09-30T02:10:22;6.50;99.90
16736;DHT22;17990;49.548;9.730;2022-09-30T02:12:54;6.60;99.90
16736;DHT22;17990;49.548;9.730;2022-09-30T02:15:27;6.50;99.90
16736;DHT22;17990;49.548;9.730;2022-09-30T02:18:03;6.40;99.90
16736;DHT22;17990;49.548;9.730;2022-09-30T02:20:40;6.40;99.90
16736;DHT22;17990;49.548;9.730;2022-09-30T02:23:11;6.20;99.90
16736;DHT22;17990;49.548;9.730;2022-09-30T02:25:44;5.90;99.90
16736;DHT22;17990;49.548;9.730;2022-09-30T02:28:16;5.80;99.90
16736;DHT22;17990;49.548;9.730;2022-09-30T02:30:47;5.70;99.90
16736;DHT22;17990;49.548;9.730;2022-09-30T02:33:20;5.70;99.90
16736;DHT22;17990;49.548;9.730;2022-09-30T02:35:53;5.70;99.90
16736;DHT22;17990;49.548;9.730;2022-09-30T02:38:25;5.70;99.90
16736;DHT22;17990;49.548;9.730;2022-09-30T02:40:57;5.80;99.90
16736;DHT22;17990;49.548;9.730;2022-09-30T02:43:29;5.90;99.90
16736;DHT22;17990;49.548;9.730;2022-09-30T02:46:06;6.00;99.90
16736;DHT22;17990;49.548;9.730;2022-09-30T02:48:42;6.00;99.90
16736;DHT22;17990;49.548;9.730;2022-09-30T02:51:16;5.80;99.90
16736;DHT22;17990;49.548;9.730;2022-09-30T02:53:51;5.70;99.90
16736;DHT22;17990;49.548;9.730;2022-09-30T02:56:29;5.70;99.90
16736;DHT22;17990;49.548;9.730;2022-09-30T02:59:03;5.80;99.90
16736;DHT22;17990;49.548;9.730;2022-09-30T03:01:30;6.00;99.90
16736;DHT22;17990;49.548;9.730;2022-09-30T03:04:01;6.00;99.90
16736;DHT22;17990;49.548;9.730;2022-09-30T03:06:29;5.90;99.90
16736;DHT22;17990;49.548;9.730;2022-09-30T03:08:56;5.70;99.90
16736;DHT22;17990;49.548;9.730;2022-09-30T03:11:25;5.70;99.90
16736;DHT22;17990;49.548;9.730;2022-09-30T03:14:26;5.70;99.90
16736;DHT22;17990;49.548;9.730;2022-09-30T03:17:19;5.80;99.90
16736;DHT22;17990;49.548;9.730;2022-09-30T03:20:11;5.90;99.90
16736;DHT22;17990;49.548;9.730;2022-09-30T03:23:02;5.80;99.90
16736;DHT22;17990;49.548;9.730;2022-09-30T03:25:46;5.80;99.90
16736;DHT22;17990;49.548;9.730;2022-09-30T03:28:22;5.90;99.90
16736;DHT22;17990;49.548;9.730;2022-09-30T03:30:58;5.60;99.90
16736;DHT22;17990;49.548;9.730;2022-09-30T03:33:37;5.60;99.90
16736;DHT22;17990;49.548;9.730;2022-09-30T03:36:13;5.60;99.90
16736;DHT22;17990;49.548;9.730;2022-09-30T03:38:47;5.40;99.90
16736;DHT22;17990;49.548;9.730;2022-09-30T03:41:21;5.40;99.90
16736;DHT22;17990;49.548;9.730;2022-09-30T03:43:56;5.40;99.90
16736;DHT22;17990;49.548;9.730;2022-09-30T03:46:31;5.50;99.90
16736;DHT22;17990;49.548;9.730;2022-09-30T03:49:02;5.30;99.90
16736;DHT22;17990;49.548;9.730;2022-09-30T03:51:35;5.40;99.90
16736;DHT22;17990;49.548;9.730;2022-09-30T03:54:06;5.50;99.90
16736;DHT22;17990;49.548;9.730;2022-09-30T03:56:35;5.50;99.90
16736;DHT22;17990;49.548;9.730;2022-09-30T03:59:10;5.40;99.90
16736;DHT22;17990;49.548;9.730;2022-09-30T04:01:38;5.40;99.90
16736;DHT22;17990;49.548;9.730;2022-09-30T04:04:05;5.40;99.90
16736;DHT22;17990;49.548;9.730;2022-09-30T04:06:33;5.40;99.90
16736;DHT22;17990;49.548;9.730;2022-09-30T04:09:00;5.50;99.90
16736;DHT22;17990;49.548;9.730;2022-09-30T04:11:27;5.50;99.90
16736;DHT22;17990;49.548;9.730;2022-09-30T04:13:54;5.60;99.90
16736;DHT22;17990;49.548;9.730;2022-09-30T04:16:21;5.70;99.90
16736;DHT22;17990;49.548;9.730;2022-09-30T04:18:49;5.70;99.90
16736;DHT22;17990;49.548;9.730;2022-09-30T04:21:16;5.80;99.90
16736;DHT22;17990;49.548;9.730;2022-09-30T04:23:44;5.80;99.90
16736;DHT22;17990;49.548;9.730;2022-09-30T04:26:13;5.80;99.90
16736;DHT22;17990;49.548;9.730;2022-09-30T04:28:41;5.90;99.90
16736;DHT22;17990;49.548;9.730;2022-09-30T04:31:10;5.90;99.90
16736;DHT22;17990;49.548;9.730;2022-09-30T04:33:37;5.90;99.90
16736;DHT22;17990;49.548;9.730;2022-09-30T04:36:04;5.90;99.90
16736;DHT22;17990;49.548;9.730;2022-09-30T04:38:32;5.90;99.90
16736;DHT22;17990;49.548;9.730;2022-09-30T04:41:03;5.90;99.90
16736;DHT22;17990;49.548;9.730;2022-09-30T04:43:31;5.90;99.90
16736;DHT22;17990;49.548;9.730;2022-09-30T04:45:59;5.90;99.90
16736;DHT22;17990;49.548;9.730;2022-09-30T04:48:26;5.90;99.90
16736;DHT22;17990;49.548;9.730;2022-09-30T04:50:56;5.90;99.90
16736;DHT22;17990;49.548;9.730;2022-09-30T04:53:25;5.90;99.90
16736;DHT22;17990;49.548;9.730;2022-09-30T04:55:57;5.90;99.90
16736;DHT22;17990;49.548;9.730;2022-09-30T04:58:27;5.90;99.90
16736;DHT22;17990;49.548;9.730;2022-09-30T05:01:00;5.80;99.90
16736;DHT22;17990;49.548;9.730;2022-09-30T05:03:27;5.80;99.90
16736;DHT22;17990;49.548;9.730;2022-09-30T05:05:54;5.80;99.90
16736;DHT22;17990;49.548;9.730;2022-09-30T05:08:21;5.90;99.90
16736;DHT22;17990;49.548;9.730;2022-09-30T05:10:53;5.80;99.90
16736;DHT22;17990;49.548;9.730;2022-09-30T05:13:22;5.80;99.90
16736;DHT22;17990;49.548;9.730;2022-09-30T05:15:51;5.80;99.90
16736;DHT22;17990;49.548;9.730;2022-09-30T05:18:18;5.80;99.90
16736;DHT22;17990;49.548;9.730;2022-09-30T05:20:48;5.70;99.90
16736;DHT22;17990;49.548;9.730;2022-09-30T05:23:16;5.80;99.90
16736;DHT22;17990;49.548;9.730;2022-09-30T05:25:44;5.90;99.90
16736;DHT22;17990;49.548;9.730;2022-09-30T05:28:11;5.90;99.90
16736;DHT22;17990;49.548;9.730;2022-09-30T05:30:40;5.90;99.90
16736;DHT22;17990;49.548;9.730;2022-09-30T05:33:09;5.90;99.90
16736;DHT22;17990;49.548;9.730;2022-09-30T05:35:38;5.90;99.90
16736;DHT22;17990;49.548;9.730;2022-09-30T05:38:06;5.90;99.90
16736;DHT22;17990;49.548;9.730;2022-09-30T05:40:36;5.90;99.90
16736;DHT22;17990;49.548;9.730;2022-09-30T05:43:03;6.00;99.90
16736;DHT22;17990;49.548;9.730;2022-09-30T05:45:31;6.00;99.90
16736;DHT22;17990;49.548;9.730;2022-09-30T05:47:58;5.90;99.90
16736;DHT22;17990;49.548;9.730;2022-09-30T05:50:26;5.90;99.90
16736;DHT22;17990;49.548;9.730;2022-09-30T05:52:53;6.00;99.90
16736;DHT22;17990;49.548;9.730;2022-09-30T05:55:21;6.00;99.90
16736;DHT22;17990;49.548;9.730;2022-09-30T05:57:49;6.00;99.90
16736;DHT22;17990;49.548;9.730;2022-09-30T06:00:18;6.00;99.90
16736;DHT22;17990;49.548;9.730;2022-09-30T06:02:49;6.00;99.90
16736;DHT22;17990;49.548;9.730;2022-09-30T06:05:16;6.00;99.90
16736;DHT22;17990;49.548;9.730;2022-09-30T06:07:45;6.10;99.90
16736;DHT22;17990;49.548;9.730;2022-09-30T06:10:12;6.10;99.90
16736;DHT22;17990;49.548;9.730;2022-09-30T06:12:39;6.20;99.90
16736;DHT22;17990;49.548;9.730;2022-09-30T06:15:07;6.20;99.90
16736;DHT22;17990;49.548;9.730;2022-09-30T06:17:34;6.30;99.90
16736;DHT22;17990;49.548;9.730;2022-09-30T06:20:01;6.30;99.90
16736;DHT22;17990;49.548;9.730;2022-09-30T06:22:31;6.30;99.90
16736;DHT22;17990;49.548;9.730;2022-09-30T06:25:03;6.40;99.90
16736;DHT22;17990;49.548;9.730;2022-09-30T06:27:31;6.30;99.90
16736;DHT22;17990;49.548;9.730;2022-09-30T06:29:59;6.30;99.90
16736;DHT22;17990;49.548;9.730;2022-09-30T06:32:26;6.40;99.90
16736;DHT22;17990;49.548;9.730;2022-09-30T06:34:53;6.40;99.90
16736;DHT22;17990;49.548;9.730;2022-09-30T06:37:21;6.40;99.90
16736;DHT22;17990;49.548;9.730;2022-09-30T06:39:48;6.50;99.90
16736;DHT22;17990;49.548;9.730;2022-09-30T06:42:17;6.40;99.90
16736;DHT22;17990;49.548;9.730;2022-09-30T06:44:44;6.30;99.90
16736;DHT22;17990;49.548;9.730;2022-09-30T06:47:12;6.30;99.90
16736;DHT22;17990;49.548;9.730;2022-09-30T06:49:39;6.30;99.90
16736;DHT22;17990;49.548;9.730;2022-09-30T06:52:08;6.20;99.90
16736;DHT22;17990;49.548;9.730;2022-09-30T06:54:36;6.20;99.90
16736;DHT22;17990;49.548;9.730;2022-09-30T06:57:03;6.20;99.90
16736;DHT22;17990;49.548;9.730;2022-09-30T06:59:31;6.30;99.90
16736;DHT22;17990;49.548;9.730;2022-09-30T07:01:58;6.40;99.90
16736;DHT22;17990;49.548;9.730;2022-09-30T07:04:25;6.50;99.90
16736;DHT22;17990;49.548;9.730;2022-09-30T07:06:52;6.60;99.90
16736;DHT22;17990;49.548;9.730;2022-09-30T07:09:19;6.60;99.90
16736;DHT22;17990;49.548;9.730;2022-09-30T07:11:46;6.70;99.90
16736;DHT22;17990;49.548;9.730;2022-09-30T07:14:13;6.80;99.90
16736;DHT22;17990;49.548;9.730;2022-09-30T07:16:41;6.90;99.90
16736;DHT22;17990;49.548;9.730;2022-09-30T07:19:10;7.00;99.90
16736;DHT22;17990;49.548;9.730;2022-09-30T07:21:37;7.10;99.90
16736;DHT22;17990;49.548;9.730;2022-09-30T07:24:04;7.10;99.90
16736;DHT22;17990;49.548;9.730;2022-09-30T07:26:31;7.10;99.90
16736;DHT22;17990;49.548;9.730;2022-09-30T07:28:58;6.80;99.90
16736;DHT22;17990;49.548;9.730;2022-09-30T07:31:25;6.90;99.90
16736;DHT22;17990;49.548;9.730;2022-09-30T07:33:54;6.60;99.90
16736;DHT22;17990;49.548;9.730;2022-09-30T07:36:23;6.70;99.90
16736;DHT22;17990;49.548;9.730;2022-09-30T07:38:54;7.00;99.90
16736;DHT22;17990;49.548;9.730;2022-09-30T07:41:23;7.20;99.90
16736;DHT22;17990;49.548;9.730;2022-09-30T07:43:54;7.40;99.90
16736;DHT22;17990;49.548;9.730;2022-09-30T07:46:25;7.40;99.90
16736;DHT22;17990;49.548;9.730;2022-09-30T07:48:57;7.50;99.90
16736;DHT22;17990;49.548;9.730;2022-09-30T07:51:29;7.40;99.90
16736;DHT22;17990;49.548;9.730;2022-09-30T07:54:00;7.50;99.90
16736;DHT22;17990;49.548;9.730;2022-09-30T07:56:29;7.60;99.90
16736;DHT22;17990;49.548;9.730;2022-09-30T07:58:58;7.70;99.90
16736;DHT22;17990;49.548;9.730;2022-09-30T08:01:27;7.80;99.90
16736;DHT22;17990;49.548;9.730;2022-09-30T08:03:59;7.90;99.90
16736;DHT22;17990;49.548;9.730;2022-09-30T08:06:28;8.10;99.90
16736;DHT22;17990;49.548;9.730;2022-09-30T08:08:57;8.00;99.90
16736;DHT22;17990;49.548;9.730;2022-09-30T08:11:25;8.00;99.90
16736;DHT22;17990;49.548;9.730;2022-09-30T08:13:53;8.00;99.90
16736;DHT22;17990;49.548;9.730;2022-09-30T08:16:22;8.10;99.90
16736;DHT22;17990;49.548;9.730;2022-09-30T08:18:53;8.30;99.90
16736;DHT22;17990;49.548;9.730;2022-09-30T08:21:21;7.90;99.90
16736;DHT22;17990;49.548;9.730;2022-09-30T08:23:49;8.10;99.90
16736;DHT22;17990;49.548;9.730;2022-09-30T08:26:16;8.40;99.90
16736;DHT22;17990;49.548;9.730;2022-09-30T08:28:44;8.60;99.90
16736;DHT22;17990;49.548;9.730;2022-09-30T08:31:14;8.80;99.90
16736;DHT22;17990;49.548;9.730;2022-09-30T08:33:42;9.00;99.90
16736;DHT22;17990;49.548;9.730;2022-09-30T08:36:12;8.90;99.90
16736;DHT22;17990;49.548;9.730;2022-09-30T08:38:41;9.00;99.90
16736;DHT22;17990;49.548;9.730;2022-09-30T08:41:21;9.10;99.90
16736;DHT22;17990;49.548;9.730;2022-09-30T08:44:19;9.00;99.90
16736;DHT22;17990;49.548;9.730;2022-09-30T08:46:57;9.00;99.90
16736;DHT22;17990;49.548;9.730;2022-09-30T08:49:35;9.20;99.90
16736;DHT22;17990;49.548;9.730;2022-09-30T08:52:13;9.30;99.90
16736;DHT22;17990;49.548;9.730;2022-09-30T08:54:47;9.50;99.90
16736;DHT22;17990;49.548;9.730;2022-09-30T08:57:16;9.50;99.90
16736;DHT22;17990;49.548;9.730;2022-09-30T08:59:44;9.70;99.90
16736;DHT22;17990;49.548;9.730;2022-09-30T09:02:17;9.70;99.90
16736;DHT22;17990;49.548;9.730;2022-09-30T09:04:48;9.70;99.90
16736;DHT22;17990;49.548;9.730;2022-09-30T09:07:27;9.90;99.90
16736;DHT22;17990;49.548;9.730;2022-09-30T09:10:12;10.00;99.90
16736;DHT22;17990;49.548;9.730;2022-09-30T09:12:49;10.20;99.90
16736;DHT22;17990;49.548;9.730;2022-09-30T09:15:28;10.50;99.90
16736;DHT22;17990;49.548;9.730;2022-09-30T09:18:28;10.70;99.90
16736;DHT22;17990;49.548;9.730;2022-09-30T09:21:21;10.90;99.90
16736;DHT22;17990;49.548;9.730;2022-09-30T09:23:50;11.00;99.90
16736;DHT22;17990;49.548;9.730;2022-09-30T09:26:20;11.10;99.90
16736;DHT22;17990;49.548;9.730;2022-09-30T09:28:58;11.20;99.90
16736;DHT22;17990;49.548;9.730;2022-09-30T09:31:34;11.30;99.90
16736;DHT22;17990;49.548;9.730;2022-09-30T09:34:08;11.40;99.90
16736;DHT22;17990;49.548;9.730;2022-09-30T09:36:49;11.00;99.90
16736;DHT22;17990;49.548;9.730;2022-09-30T09:39:44;11.20;99.90
16736;DHT22;17990;49.548;9.730;2022-09-30T09:42:34;11.50;99.90
16736;DHT22;17990;49.548;9.730;2022-09-30T09:45:12;11.40;99.90
16736;DHT22;17990;49.548;9.730;2022-09-30T09:47:49;11.80;99.90
16736;DHT22;17990;49.548;9.730;2022-09-30T09:50:20;12.10;99.90
16736;DHT22;17990;49.548;9.730;2022-09-30T09:53:03;12.20;99.90
16736;DHT22;17990;49.548;9.730;2022-09-30T09:55:42;12.50;99.90
16736;DHT22;17990;49.548;9.730;2022-09-30T09:58:12;12.70;99.90
16736;DHT22;17990;49.548;9.730;2022-09-30T10:00:42;12.80;99.90
16736;DHT22;17990;49.548;9.730;2022-09-30T10:03:38;13.00;99.90
16736;DHT22;17990;49.548;9.730;2022-09-30T10:06:06;13.10;99.90
16736;DHT22;17990;49.548;9.730;2022-09-30T10:08:36;13.30;99.90
16736;DHT22;17990;49.548;9.730;2022-09-30T10:11:06;13.50;99.90
16736;DHT22;17990;49.548;9.730;2022-09-30T10:13:44;13.30;99.90
16736;DHT22;17990;49.548;9.730;2022-09-30T10:16:26;13.40;99.90
16736;DHT22;17990;49.548;9.730;2022-09-30T10:18:54;13.40;99.90
16736;DHT22;17990;49.548;9.730;2022-09-30T10:21:23;13.30;99.90
16736;DHT22;17990;49.548;9.730;2022-09-30T10:23:51;13.10;99.90
16736;DHT22;17990;49.548;9.730;2022-09-30T10:26:19;13.00;99.90
16736;DHT22;17990;49.548;9.730;2022-09-30T10:28:50;12.50;99.90
16736;DHT22;17990;49.548;9.730;2022-09-30T10:31:22;12.40;99.90
16736;DHT22;17990;49.548;9.730;2022-09-30T10:33:55;12.00;99.90
16736;DHT22;17990;49.548;9.730;2022-09-30T10:36:30;12.10;99.90
16736;DHT22;17990;49.548;9.730;2022-09-30T10:39:00;12.00;99.90
16736;DHT22;17990;49.548;9.730;2022-09-30T10:41:30;12.00;99.90
16736;DHT22;17990;49.548;9.730;2022-09-30T10:44:01;12.10;99.90
16736;DHT22;17990;49.548;9.730;2022-09-30T10:46:31;12.30;99.90
16736;DHT22;17990;49.548;9.730;2022-09-30T10:49:08;12.30;99.90
16736;DHT22;17990;49.548;9.730;2022-09-30T10:51:36;12.30;99.90
16736;DHT22;17990;49.548;9.730;2022-09-30T10:54:04;12.50;99.90
16736;DHT22;17990;49.548;9.730;2022-09-30T10:56:40;12.50;99.90
16736;DHT22;17990;49.548;9.730;2022-09-30T10:59:19;12.60;99.90
16736;DHT22;17990;49.548;9.730;2022-09-30T11:01:59;12.80;99.90
16736;DHT22;17990;49.548;9.730;2022-09-30T11:04:35;13.10;99.90
16736;DHT22;17990;49.548;9.730;2022-09-30T11:07:14;13.20;99.90
16736;DHT22;17990;49.548;9.730;2022-09-30T11:09:48;13.40;99.90
16736;DHT22;17990;49.548;9.730;2022-09-30T11:12:24;13.60;99.90
16736;DHT22;17990;49.548;9.730;2022-09-30T11:15:03;13.80;99.90
16736;DHT22;17990;49.548;9.730;2022-09-30T11:17:39;13.80;99.90
16736;DHT22;17990;49.548;9.730;2022-09-30T11:20:18;13.90;99.90
16736;DHT22;17990;49.548;9.730;2022-09-30T11:22:53;14.20;99.90
16736;DHT22;17990;49.548;9.730;2022-09-30T11:25:27;14.30;99.90
16736;DHT22;17990;49.548;9.730;2022-09-30T11:28:26;14.50;99.90
16736;DHT22;17990;49.548;9.730;2022-09-30T11:31:11;14.70;99.90
16736;DHT22;17990;49.548;9.730;2022-09-30T11:33:54;15.00;99.90
16736;DHT22;17990;49.548;9.730;2022-09-30T11:36:30;15.10;99.90
16736;DHT22;17990;49.548;9.730;2022-09-30T11:39:13;15.10;99.90
16736;DHT22;17990;49.548;9.730;2022-09-30T11:41:54;15.10;99.90
16736;DHT22;17990;49.548;9.730;2022-09-30T11:44:31;15.20;99.90
16736;DHT22;17990;49.548;9.730;2022-09-30T11:47:14;15.20;99.90
16736;DHT22;17990;49.548;9.730;2022-09-30T11:50:04;15.40;99.90
16736;DHT22;17990;49.548;9.730;2022-09-30T11:52:50;15.70;99.90
16736;DHT22;17990;49.548;9.730;2022-09-30T11:55:35;15.90;99.90
16736;DHT22;17990;49.548;9.730;2022-09-30T11:58:08;15.90;99.90
16736;DHT22;17990;49.548;9.730;2022-09-30T12:00:40;16.00;99.90
16736;DHT22;17990;49.548;9.730;2022-09-30T12:03:14;16.10;99.90
16736;DHT22;17990;49.548;9.730;2022-09-30T12:05:46;16.20;99.90
16736;DHT22;17990;49.548;9.730;2022-09-30T12:08:17;16.20;99.90
16736;DHT22;17990;49.548;9.730;2022-09-30T12:10:49;16.30;99.90
16736;DHT22;17990;49.548;9.730;2022-09-30T12:13:22;16.40;99.90
16736;DHT22;17990;49.548;9.730;2022-09-30T12:15:53;16.60;99.90
16736;DHT22;17990;49.548;9.730;2022-09-30T12:18:27;16.60;99.90
16736;DHT22;17990;49.548;9.730;2022-09-30T12:20:59;16.70;99.90
16736;DHT22;17990;49.548;9.730;2022-09-30T12:23:32;16.70;99.90
16736;DHT22;17990;49.548;9.730;2022-09-30T12:26:03;16.70;99.90
16736;DHT22;17990;49.548;9.730;2022-09-30T12:28:34;16.90;99.80
16736;DHT22;17990;49.548;9.730;2022-09-30T12:31:37;16.90;99.30
16736;DHT22;17990;49.548;9.730;2022-09-30T12:34:23;17.10;97.50
16736;DHT22;17990;49.548;9.730;2022-09-30T12:37:04;17.20;97.30
16736;DHT22;17990;49.548;9.730;2022-09-30T12:40:04;17.30;97.00
16736;DHT22;17990;49.548;9.730;2022-09-30T12:42:56;17.50;94.00
16736;DHT22;17990;49.548;9.730;2022-09-30T12:46:00;17.50;94.60
16736;DHT22;17990;49.548;9.730;2022-09-30T12:48:35;17.40;94.70
16736;DHT22;17990;49.548;9.730;2022-09-30T12:51:06;17.50;95.60
16736;DHT22;17990;49.548;9.730;2022-09-30T12:53:35;17.60;96.10
16736;DHT22;17990;49.548;9.730;2022-09-30T12:56:05;17.60;95.20
16736;DHT22;17990;49.548;9.730;2022-09-30T12:58:36;17.70;95.30
16736;DHT22;17990;49.548;9.730;2022-09-30T13:01:07;17.80;94.50
16736;DHT22;17990;49.548;9.730;2022-09-30T13:03:49;17.80;94.90
16736;DHT22;17990;49.548;9.730;2022-09-30T13:06:21;17.80;95.30
16736;DHT22;17990;49.548;9.730;2022-09-30T13:09:18;17.70;96.70
16736;DHT22;17990;49.548;9.730;2022-09-30T13:11:47;17.70;97.20
16736;DHT22;17990;49.548;9.730;2022-09-30T13:14:41;17.70;97.50
16736;DHT22;17990;49.548;9.730;2022-09-30T13:17:32;17.90;97.80
16736;DHT22;17990;49.548;9.730;2022-09-30T13:20:00;17.90;97.60
16736;DHT22;17990;49.548;9.730;2022-09-30T13:22:56;17.80;97.70
16736;DHT22;17990;49.548;9.730;2022-09-30T13:25:24;17.90;98.10
16736;DHT22;17990;49.548;9.730;2022-09-30T13:27:53;18.00;98.00
16736;DHT22;17990;49.548;9.730;2022-09-30T13:31:11;18.20;97.90
16736;DHT22;17990;49.548;9.730;2022-09-30T13:33:42;18.30;97.30
16736;DHT22;17990;49.548;9.730;2022-09-30T13:36:24;18.30;97.40
16736;DHT22;17990;49.548;9.730;2022-09-30T13:39:23;18.10;97.40
16736;DHT22;17990;49.548;9.730;2022-09-30T13:42:07;18.10;97.80
16736;DHT22;17990;49.548;9.730;2022-09-30T13:44:48;18.00;97.50
16736;DHT22;17990;49.548;9.730;2022-09-30T13:47:27;17.70;98.10
16736;DHT22;17990;49.548;9.730;2022-09-30T13:49:59;17.80;97.90
16736;DHT22;17990;49.548;9.730;2022-09-30T13:52:31;17.80;98.10
16736;DHT22;17990;49.548;9.730;2022-09-30T13:55:04;18.00;97.90
16736;DHT22;17990;49.548;9.730;2022-09-30T13:57:41;18.20;98.00
16736;DHT22;17990;49.548;9.730;2022-09-30T14:00:15;18.40;97.60
16736;DHT22;17990;49.548;9.730;2022-09-30T14:03:00;18.30;97.70
16736;DHT22;17990;49.548;9.730;2022-09-30T14:09:11;17.70;99.10
16736;DHT22;17990;49.548;9.730;2022-09-30T14:11:57;17.40;99.30
16736;DHT22;17990;49.548;9.730;2022-09-30T14:18:05;18.10;98.00
16736;DHT22;17990;49.548;9.730;2022-09-30T14:21:00;18.50;97.90
16736;DHT22;17990;49.548;9.730;2022-09-30T14:23:37;18.70;97.40
16736;DHT22;17990;49.548;9.730;2022-09-30T14:26:15;18.80;96.80
16736;DHT22;17990;49.548;9.730;2022-09-30T14:28:58;18.70;97.00
16736;DHT22;17990;49.548;9.730;2022-09-30T14:31:27;18.60;97.30
16736;DHT22;17990;49.548;9.730;2022-09-30T14:33:58;18.60;97.50
16736;DHT22;17990;49.548;9.730;2022-09-30T14:36:25;18.60;97.30
16736;DHT22;17990;49.548;9.730;2022-09-30T14:38:55;18.60;96.90
16736;DHT22;17990;49.548;9.730;2022-09-30T14:41:24;18.40;97.20
16736;DHT22;17990;49.548;9.730;2022-09-30T14:43:56;18.30;97.50
16736;DHT22;17990;49.548;9.730;2022-09-30T14:46:31;18.10;98.20
16736;DHT22;17990;49.548;9.730;2022-09-30T14:49:02;18.10;98.60
16736;DHT22;17990;49.548;9.730;2022-09-30T14:51:35;17.80;99.60
16736;DHT22;17990;49.548;9.730;2022-09-30T14:54:15;17.70;99.90
16736;DHT22;17990;49.548;9.730;2022-09-30T14:56:43;17.80;99.90
16736;DHT22;17990;49.548;9.730;2022-09-30T14:59:16;17.80;99.00
16736;DHT22;17990;49.548;9.730;2022-09-30T15:01:46;17.80;99.00
16736;DHT22;17990;49.548;9.730;2022-09-30T15:04:16;17.90;98.90
16736;DHT22;17990;49.548;9.730;2022-09-30T15:06:47;17.70;98.80
16736;DHT22;17990;49.548;9.730;2022-09-30T15:09:17;17.90;98.70
16736;DHT22;17990;49.548;9.730;2022-09-30T15:11:47;17.80;98.60
16736;DHT22;17990;49.548;9.730;2022-09-30T15:14:18;17.60;99.50
16736;DHT22;17990;49.548;9.730;2022-09-30T15:16:48;17.30;99.90
16736;DHT22;17990;49.548;9.730;2022-09-30T15:19:21;17.00;99.90
16736;DHT22;17990;49.548;9.730;2022-09-30T15:21:50;16.80;99.90
16736;DHT22;17990;49.548;9.730;2022-09-30T15:24:19;16.60;99.90
16736;DHT22;17990;49.548;9.730;2022-09-30T15:26:48;16.40;99.90
16736;DHT22;17990;49.548;9.730;2022-09-30T15:29:18;16.20;99.90
16736;DHT22;17990;49.548;9.730;2022-09-30T15:31:47;16.10;99.90
16736;DHT22;17990;49.548;9.730;2022-09-30T15:34:18;15.90;99.90
16736;DHT22;17990;49.548;9.730;2022-09-30T15:36:48;15.70;99.90
16736;DHT22;17990;49.548;9.730;2022-09-30T15:39:25;15.60;99.90
16736;DHT22;17990;49.548;9.730;2022-09-30T15:42:27;15.50;99.90
16736;DHT22;17990;49.548;9.730;2022-09-30T15:44:59;15.40;99.90
16736;DHT22;17990;49.548;9.730;2022-09-30T15:47:27;15.30;99.90
16736;DHT22;17990;49.548;9.730;2022-09-30T15:49:54;15.30;99.90
16736;DHT22;17990;49.548;9.730;2022-09-30T15:52:36;15.30;99.90
16736;DHT22;17990;49.548;9.730;2022-09-30T15:55:34;15.10;99.90
16736;DHT22;17990;49.548;9.730;2022-09-30T15:58:03;15.10;99.90
16736;DHT22;17990;49.548;9.730;2022-09-30T16:00:37;14.90;99.90
16736;DHT22;17990;49.548;9.730;2022-09-30T16:03:13;14.80;99.90
16736;DHT22;17990;49.548;9.730;2022-09-30T16:05:46;14.50;99.90
16736;DHT22;17990;49.548;9.730;2022-09-30T16:08:19;14.30;99.90
16736;DHT22;17990;49.548;9.730;2022-09-30T16:10:49;14.10;99.90
16736;DHT22;17990;49.548;9.730;2022-09-30T16:13:20;14.00;99.90
16736;DHT22;17990;49.548;9.730;2022-09-30T16:15:51;13.80;99.90
16736;DHT22;17990;49.548;9.730;2022-09-30T16:18:20;13.60;99.90
16736;DHT22;17990;49.548;9.730;2022-09-30T16:20:57;13.50;99.90
16736;DHT22;17990;49.548;9.730;2022-09-30T16:23:27;13.40;99.90
16736;DHT22;17990;49.548;9.730;2022-09-30T16:26:18;13.40;99.90
16736;DHT22;17990;49.548;9.730;2022-09-30T16:28:48;13.40;99.90
16736;DHT22;17990;49.548;9.730;2022-09-30T16:31:17;13.30;99.90
16736;DHT22;17990;49.548;9.730;2022-09-30T16:33:45;13.20;99.90
16736;DHT22;17990;49.548;9.730;2022-09-30T16:36:12;13.00;99.90